Time;durP1;ratioP1;P1;durP2;ratioP2;P2;SDS_P1;SDS_P2;PMS_P1;PMS_P2;Temp;Humidity;BMP_temperature;BMP_pressure;BME280_temperature;BME280_humidity;BME280_pressure;Samples;Min_cycle;Max_cycle;Signal;HPM_P1;HPM_P2
2022/04/06 00:00:00;;;;;;;3.83;3.53;;;;;;;5.74;100.00;92419.19;2082642;28;20028;-83
2022/04/06 00:01:01;;;;;;;3.60;3.33;;;;;;;5.77;100.00;92415.75;2075147;28;20029;-84
2022/04/06 00:02:03;;;;;;;4.20;3.47;;;;;;;5.86;100.00;92423.19;2090241;28;20650;-83
2022/04/06 00:03:04;;;;;;;5.53;3.13;;;;;;;6.00;100.00;92417.69;2098519;28;20111;-84
2022/04/06 00:04:06;;;;;;;4.60;3.47;;;;;;;5.86;100.00;92407.28;2100547;28;20044;-84
2022/04/06 00:05:10;;;;;;;3.58;3.28;;;;;;;5.84;100.00;92414.88;2098638;28;20017;-84
2022/04/06 00:06:11;;;;;;;3.88;3.58;;;;;;;5.85;100.00;92413.72;2095947;28;20491;-82
2022/04/06 00:07:12;;;;;;;3.95;3.63;;;;;;;5.80;100.00;92415.69;2084989;28;20036;-83
2022/04/06 00:08:13;;;;;;;3.88;3.50;;;;;;;5.77;100.00;92421.03;2082084;28;20155;-83
2022/04/06 00:09:14;;;;;;;4.07;3.67;;;;;;;5.87;100.00;92420.13;2090095;28;20075;-82
2022/04/06 00:10:15;;;;;;;3.67;3.38;;;;;;;5.85;100.00;92416.38;2090128;28;20127;-84
2022/04/06 00:11:16;;;;;;;3.97;3.58;;;;;;;5.86;100.00;92415.97;2098539;28;20016;-84
2022/04/06 00:12:17;;;;;;;3.40;3.10;;;;;;;5.86;100.00;92421.28;2106040;28;20036;-85
2022/04/06 00:13:18;;;;;;;3.78;3.47;;;;;;;5.99;100.00;92416.19;2106415;28;20632;-83
2022/04/06 00:14:19;;;;;;;3.42;3.13;;;;;;;5.91;100.00;92423.47;2106759;28;20055;-85
2022/04/06 00:15:23;;;;;;;3.92;3.60;;;;;;;5.84;100.00;92420.94;2098263;28;20044;-83
2022/04/06 00:16:25;;;;;;;4.10;3.70;;;;;;;5.80;100.00;92425.53;2094589;28;20067;-82
2022/04/06 00:17:26;;;;;;;4.10;3.67;;;;;;;6.02;100.00;92426.00;2081721;28;20032;-82
2022/04/06 00:18:27;;;;;;;4.03;3.63;;;;;;;5.91;100.00;92420.81;2078941;28;20026;-83
2022/04/06 00:19:29;;;;;;;4.15;3.75;;;;;;;5.84;100.00;92426.25;2090214;28;20116;-84
2022/04/06 00:20:30;;;;;;;4.30;3.33;;;;;;;5.79;100.00;92419.50;2090010;28;20036;-83
2022/04/06 00:21:31;;;;;;;4.13;3.72;;;;;;;5.75;100.00;92424.09;2087407;28;20582;-84
2022/04/06 00:22:32;;;;;;;4.07;3.67;;;;;;;5.75;100.00;92420.69;2092480;28;20028;-82
2022/04/06 00:23:33;;;;;;;4.35;3.80;;;;;;;5.70;100.00;92416.56;2089917;28;20490;-83
2022/04/06 00:24:34;;;;;;;4.97;3.75;;;;;;;5.66;100.00;92417.78;2081434;28;20083;-82
2022/04/06 00:25:35;;;;;;;4.47;3.97;;;;;;;5.67;100.00;92420.06;2081868;28;20031;-84
2022/04/06 00:26:36;;;;;;;4.20;3.80;;;;;;;5.74;100.00;92424.50;2081611;28;20032;-82
2022/04/06 00:27:37;;;;;;;3.95;3.53;;;;;;;5.73;100.00;92415.03;2081756;28;20017;-83
2022/04/06 00:28:38;;;;;;;3.55;3.25;;;;;;;5.91;100.00;92418.16;2089964;28;20408;-83
2022/04/06 00:29:39;;;;;;;6.88;4.18;;;;;;;5.79;100.00;92410.78;2085281;28;20025;-82
2022/04/06 00:30:41;;;;;;;4.28;3.88;;;;;;;5.79;100.00;92408.91;2106642;28;20499;-82
2022/04/06 00:31:42;;;;;;;4.93;3.80;;;;;;;5.79;100.00;92408.13;2106378;28;20035;-82
2022/04/06 00:32:44;;;;;;;4.20;3.85;;;;;;;5.80;100.00;92410.38;2089787;28;20025;-84
2022/04/06 00:33:45;;;;;;;3.90;3.60;;;;;;;5.78;100.00;92401.31;2091427;28;20074;-82
2022/04/06 00:36:05;;;;;;;3.65;3.35;;;;;;;5.89;100.00;92399.25;2087924;28;20029;-85
2022/04/06 00:37:06;;;;;;;3.58;3.28;;;;;;;5.89;100.00;92411.78;2095436;28;20052;-83
2022/04/06 00:38:09;;;;;;;5.88;3.75;;;;;;;5.79;100.00;92406.25;2078944;28;20200;-83
2022/04/06 00:39:11;;;;;;;3.75;3.45;;;;;;;5.80;100.00;92404.34;2084813;28;21627;-83
2022/04/06 00:40:12;;;;;;;3.80;3.50;;;;;;;5.82;100.00;92408.06;2097774;28;20039;-82
2022/04/06 00:41:14;;;;;;;3.53;3.22;;;;;;;5.80;100.00;92405.09;2095540;28;20493;-83
2022/04/06 00:42:15;;;;;;;4.15;3.75;;;;;;;5.78;100.00;92410.03;2093137;28;20020;-83
2022/04/06 00:43:16;;;;;;;3.90;3.60;;;;;;;5.78;100.00;92404.72;2081276;28;20021;-83
2022/04/06 00:44:18;;;;;;;5.07;3.53;;;;;;;5.82;100.00;92402.75;2083971;28;20025;-84
2022/04/06 00:45:23;;;;;;;4.20;3.55;;;;;;;5.82;100.00;92400.13;2090637;28;20027;-84
2022/04/06 00:46:24;;;;;;;3.67;3.38;;;;;;;5.75;100.00;92402.88;2089515;28;20377;-84
2022/04/06 00:47:25;;;;;;;4.03;3.70;;;;;;;5.79;100.00;92406.25;2087935;28;20040;-82
2022/04/06 00:48:26;;;;;;;5.40;3.65;;;;;;;5.84;100.00;92404.25;2092672;28;20017;-82
2022/04/06 00:49:28;;;;;;;3.90;3.60;;;;;;;5.79;100.00;92402.81;2081291;28;20029;-82
2022/04/06 00:50:29;;;;;;;4.22;3.47;;;;;;;5.79;100.00;92397.50;2090551;28;20129;-84
2022/04/06 00:51:30;;;;;;;3.90;3.42;;;;;;;5.82;100.00;92402.75;2092186;28;20473;-84
2022/04/06 00:52:31;;;;;;;4.45;4.05;;;;;;;5.84;100.00;92396.31;2090649;28;20116;-84
2022/04/06 00:53:32;;;;;;;4.05;3.65;;;;;;;5.75;100.00;92400.25;2076190;28;20026;-83
2022/04/06 00:54:37;;;;;;;5.25;3.80;;;;;;;5.91;100.00;92398.84;2095757;28;20023;-83
2022/04/06 00:55:40;;;;;;;3.95;3.65;;;;;;;5.83;100.00;92398.22;2097334;28;20028;-84
2022/04/06 00:56:43;;;;;;;4.13;3.70;;;;;;;5.78;100.00;92393.38;2093681;28;20029;-83
2022/04/06 00:57:44;;;;;;;4.15;3.85;;;;;;;5.75;100.00;92388.84;2091617;28;20593;-84
2022/04/06 00:58:47;;;;;;;3.90;3.60;;;;;;;5.72;100.00;92392.34;2084866;28;20041;-83
2022/04/06 00:59:50;;;;;;;4.10;3.80;;;;;;;5.70;100.00;92392.72;2078215;28;20068;-83
2022/04/06 01:00:51;;;;;;;4.07;3.67;;;;;;;5.87;100.00;92395.50;2089239;28;20025;-83
2022/04/06 01:01:53;;;;;;;3.75;3.45;;;;;;;5.92;100.00;92390.50;2089115;28;20532;-83
2022/04/06 01:02:54;;;;;;;4.30;4.00;;;;;;;5.84;100.00;92386.47;2100715;28;20115;-83
2022/04/06 01:03:55;;;;;;;4.15;3.75;;;;;;;5.78;100.00;92380.84;2083276;28;20055;-82
2022/04/06 01:04:57;;;;;;;4.05;3.70;;;;;;;5.74;100.00;92385.47;2082246;28;20033;-84
2022/04/06 01:05:59;;;;;;;4.18;3.78;;;;;;;5.75;100.00;92383.56;2089800;28;20021;-83
2022/04/06 01:07:00;;;;;;;3.90;3.60;;;;;;;5.78;100.00;92385.41;2089502;28;20469;-83
2022/04/06 01:08:01;;;;;;;4.00;3.70;;;;;;;5.78;100.00;92393.38;2089630;28;20055;-83
2022/04/06 01:09:03;;;;;;;4.05;3.65;;;;;;;5.87;100.00;92382.25;2089650;28;20055;-82
2022/04/06 01:10:04;;;;;;;4.47;4.07;;;;;;;5.79;100.00;92374.41;2081591;28;20112;-83
2022/04/06 01:11:05;;;;;;;3.75;3.38;;;;;;;5.77;100.00;92379.34;2083432;28;20029;-84
2022/04/06 01:12:07;;;;;;;4.43;3.85;;;;;;;5.70;100.00;92376.81;2088812;28;20498;-83
2022/04/06 01:13:09;;;;;;;4.03;3.70;;;;;;;5.72;100.00;92374.53;2081371;28;20152;-83
2022/04/06 01:14:11;;;;;;;5.32;3.70;;;;;;;5.75;100.00;92381.69;2081636;28;20879;-83
2022/04/06 01:15:13;;;;;;;3.88;3.58;;;;;;;5.76;100.00;92372.56;2105228;28;20392;-83
2022/04/06 01:16:14;;;;;;;3.78;3.42;;;;;;;5.76;100.00;92377.13;2101037;28;20027;-82
2022/04/06 01:17:15;;;;;;;4.05;3.65;;;;;;;5.94;100.00;92371.56;2089550;28;20536;-84
2022/04/06 01:18:18;;;;;;;4.72;3.90;;;;;;;5.91;100.00;92374.97;2097767;28;20012;-83
2022/04/06 01:19:18;;;;;;;6.47;3.75;;;;;;;5.90;100.00;92370.84;2089681;28;20021;-83
2022/04/06 01:20:19;;;;;;;3.80;3.50;;;;;;;6.20;100.00;92375.28;2089462;28;20013;-83
2022/04/06 01:21:21;;;;;;;4.07;3.67;;;;;;;6.06;100.00;92370.97;2081118;28;20458;-82
2022/04/06 01:22:23;;;;;;;4.15;3.85;;;;;;;5.89;100.00;92375.41;2081641;28;20569;-83
2022/04/06 01:23:24;;;;;;;3.70;3.40;;;;;;;5.84;100.00;92365.25;2081585;28;20405;-83
2022/04/06 01:24:25;;;;;;;4.40;4.07;;;;;;;5.75;100.00;92368.41;2093844;28;20017;-82
2022/04/06 01:25:27;;;;;;;3.83;3.53;;;;;;;5.84;100.00;92367.13;2081601;28;20025;-84
2022/04/06 01:26:28;;;;;;;3.53;3.30;;;;;;;5.84;100.00;92367.13;2097642;28;20035;-82
2022/04/06 01:27:29;;;;;;;4.03;3.72;;;;;;;5.77;100.00;92365.34;2081296;28;20049;-82
2022/04/06 01:28:30;;;;;;;4.93;3.90;;;;;;;5.85;100.00;92373.97;2081248;28;20033;-84
2022/04/06 01:29:31;;;;;;;4.03;3.70;;;;;;;5.94;100.00;92363.59;2081703;28;20022;-83
2022/04/06 01:30:32;;;;;;;6.95;4.03;;;;;;;5.82;100.00;92368.28;2089729;28;20084;-84
2022/04/06 01:31:34;;;;;;;4.15;3.80;;;;;;;5.77;100.00;92371.41;2097794;28;20123;-82
2022/04/06 01:32:35;;;;;;;4.10;3.70;;;;;;;5.93;100.00;92365.50;2089426;28;20448;-84
2022/04/06 01:33:36;;;;;;;4.05;3.75;;;;;;;5.87;100.00;92368.97;2081254;28;20041;-82
2022/04/06 01:34:39;;;;;;;3.90;3.60;;;;;;;5.77;100.00;92362.69;2097658;28;20020;-84
2022/04/06 01:35:42;;;;;;;4.82;4.40;;;;;;;5.70;100.00;92365.47;2089388;28;20033;-84
2022/04/06 01:36:43;;;;;;;4.53;4.13;;;;;;;5.70;100.00;92347.66;2081199;28;20045;-82
2022/04/06 01:37:44;;;;;;;4.70;4.30;;;;;;;5.69;100.00;92354.09;2081221;28;20029;-84
2022/04/06 01:38:45;;;;;;;3.70;3.40;;;;;;;5.69;100.00;92354.09;2089307;28;20029;-83
2022/04/06 01:39:48;;;;;;;4.03;3.72;;;;;;;5.65;100.00;92350.00;2106014;28;20020;-82
2022/04/06 01:40:51;;;;;;;3.75;3.45;;;;;;;5.57;100.00;92349.38;2105972;28;20020;-82
2022/04/06 01:41:52;;;;;;;4.40;4.00;;;;;;;5.56;100.00;92353.91;2081481;28;20482;-83
2022/04/06 01:42:54;;;;;;;5.32;4.13;;;;;;;5.61;100.00;92354.63;2089269;28;20474;-82
2022/04/06 01:43:56;;;;;;;4.60;4.20;;;;;;;5.58;100.00;92356.19;2081345;28;20079;-84
2022/04/06 01:44:58;;;;;;;4.65;4.22;;;;;;;5.60;100.00;92361.06;2089224;28;20016;-84
2022/04/06 01:46:00;;;;;;;4.90;4.40;;;;;;;5.62;100.00;92354.22;2081448;28;20029;-83
2022/04/06 01:47:04;;;;;;;4.88;4.47;;;;;;;5.66;100.00;92354.91;2081255;28;20028;-84
2022/04/06 01:48:05;;;;;;;4.45;4.05;;;;;;;5.64;100.00;92349.25;2098378;28;20499;-82
2022/04/06 01:53:05;;;;;;;6.15;3.65;;;;;;;5.66;100.00;92352.25;2097458;28;20035;-82
2022/04/06 01:54:06;;;;;;;4.45;3.85;;;;;;;5.72;100.00;92349.91;2087436;28;20709;-83
2022/04/06 01:55:12;;;;;;;3.80;3.50;;;;;;;5.68;100.00;92352.63;2099268;28;20023;-83
2022/04/06 01:56:14;;;;;;;4.88;4.00;;;;;;;5.70;100.00;92347.66;2089828;28;20118;-85
2022/04/06 01:57:17;;;;;;;4.03;3.70;;;;;;;5.71;100.00;92345.75;2085299;28;20017;-83
2022/04/06 01:58:18;;;;;;;6.22;3.80;;;;;;;5.68;100.00;92344.66;2085102;28;20040;-82
2022/04/06 01:59:19;;;;;;;4.38;4.07;;;;;;;5.68;100.00;92344.66;2089230;28;20619;-82
2022/04/06 02:00:20;;;;;;;4.40;3.42;;;;;;;5.68;100.00;92346.56;2097248;28;20028;-84
2022/04/06 02:01:22;;;;;;;4.38;3.72;;;;;;;5.65;100.00;92344.72;2097390;28;20031;-83
2022/04/06 02:02:26;;;;;;;3.83;3.53;;;;;;;5.68;100.00;92346.56;2105791;28;20027;-81
2022/04/06 02:03:27;;;;;;;3.70;3.40;;;;;;;5.64;100.00;92340.56;2089350;28;20040;-83
2022/04/06 02:04:28;;;;;;;3.55;3.25;;;;;;;5.64;100.00;92346.63;2089298;28;20377;-83
2022/04/06 02:05:34;;;;;;;4.10;3.67;;;;;;;5.62;100.00;92345.50;2097423;28;20029;-84
2022/04/06 02:06:35;;;;;;;3.60;3.30;;;;;;;5.58;100.00;92340.28;2087700;28;20514;-82
2022/04/06 02:07:37;;;;;;;4.28;3.88;;;;;;;5.57;100.00;92344.06;2089243;28;20028;-84
2022/04/06 02:08:38;;;;;;;3.75;3.45;;;;;;;5.57;100.00;92333.47;2097523;28;20024;-84
2022/04/06 02:09:40;;;;;;;4.72;3.55;;;;;;;5.56;100.00;92338.03;2080818;28;20026;-84
2022/04/06 02:10:43;;;;;;;3.50;3.20;;;;;;;5.61;100.00;92334.16;2081172;28;20025;-82
2022/04/06 02:11:45;;;;;;;4.28;3.70;;;;;;;5.62;100.00;92335.69;2089542;28;20075;-84
2022/04/06 02:12:47;;;;;;;4.38;3.78;;;;;;;5.84;100.00;92340.59;2080475;28;20046;-84
2022/04/06 02:13:47;;;;;;;3.78;3.47;;;;;;;5.71;100.00;92340.47;2089480;28;20086;-82
2022/04/06 02:14:49;;;;;;;4.07;3.67;;;;;;;5.65;100.00;92337.50;2097314;28;20070;-82
2022/04/06 02:15:50;;;;;;;4.00;3.70;;;;;;;5.63;100.00;92336.44;2089480;28;20025;-83
2022/04/06 02:16:53;;;;;;;4.25;3.85;;;;;;;5.67;100.00;92339.78;2089075;28;20017;-84
2022/04/06 02:17:54;;;;;;;3.38;3.17;;;;;;;5.77;100.00;92334.28;2081303;28;20032;-84
2022/04/06 02:18:56;;;;;;;4.88;3.72;;;;;;;5.70;100.00;92336.28;2081201;28;20018;-83
2022/04/06 02:19:58;;;;;;;3.40;3.15;;;;;;;5.87;100.00;92335.25;2089390;28;20020;-82
2022/04/06 02:20:59;;;;;;;3.72;3.42;;;;;;;5.85;100.00;92332.28;2097524;28;20017;-84
2022/04/06 02:22:00;;;;;;;3.92;3.63;;;;;;;5.75;100.00;92338.47;2098692;28;20024;-84
2022/04/06 02:23:03;;;;;;;4.40;4.00;;;;;;;5.67;100.00;92337.88;2087829;28;20043;-81
2022/04/06 02:24:04;;;;;;;3.53;3.22;;;;;;;5.67;100.00;92335.22;2089385;28;20029;-82
2022/04/06 02:25:05;;;;;;;3.50;3.22;;;;;;;5.71;100.00;92333.25;2099416;28;20020;-82
2022/04/06 02:26:06;;;;;;;4.13;3.72;;;;;;;5.70;100.00;92326.44;2097371;28;20032;-82
2022/04/06 02:27:08;;;;;;;3.95;3.63;;;;;;;5.69;100.00;92329.50;2091450;28;20035;-83
2022/04/06 02:28:09;;;;;;;3.83;3.53;;;;;;;5.65;100.00;92324.25;2105514;28;20516;-84
2022/04/06 02:29:10;;;;;;;4.47;3.83;;;;;;;5.65;100.00;92320.84;2091788;28;20035;-84
2022/04/06 02:30:11;;;;;;;3.90;3.50;;;;;;;5.65;100.00;92320.84;2089196;28;20020;-84
2022/04/06 02:31:12;;;;;;;3.47;3.28;;;;;;;5.66;100.00;92331.03;2088998;28;20021;-81
2022/04/06 02:32:14;;;;;;;5.03;3.83;;;;;;;5.62;100.00;92324.31;2089146;28;20070;-82
2022/04/06 02:33:14;;;;;;;3.65;3.35;;;;;;;5.66;100.00;92325.00;2092277;28;20024;-84
2022/04/06 02:34:16;;;;;;;4.03;3.63;;;;;;;5.65;100.00;92323.50;2085613;28;20025;-82
2022/04/06 02:35:17;;;;;;;5.10;3.05;;;;;;;5.64;100.00;92316.72;2097443;28;20065;-83
2022/04/06 02:36:19;;;;;;;3.33;3.08;;;;;;;5.67;100.00;92321.97;2088642;28;20390;-83
2022/04/06 02:37:20;;;;;;;3.50;3.20;;;;;;;5.59;100.00;92325.88;2089080;28;20025;-83
2022/04/06 02:38:21;;;;;;;4.70;3.40;;;;;;;5.60;100.00;92322.06;2093337;28;20028;-84
2022/04/06 02:39:22;;;;;;;3.47;2.92;;;;;;;5.56;100.00;92322.13;2084809;28;20022;-83
2022/04/06 02:40:23;;;;;;;3.30;3.00;;;;;;;5.53;100.00;92322.94;2080810;28;20026;-85
2022/04/06 02:41:24;;;;;;;3.40;3.17;;;;;;;5.57;100.00;92322.84;2097301;28;20024;-84
2022/04/06 02:42:24;;;;;;;3.60;3.30;;;;;;;5.57;100.00;92317.56;2092771;28;20032;-84
2022/04/06 02:43:25;;;;;;;3.28;2.97;;;;;;;5.59;100.00;92319.81;2080831;28;20025;-82
2022/04/06 02:44:26;;;;;;;3.03;2.83;;;;;;;5.65;100.00;92324.25;2085954;28;20029;-84
2022/04/06 02:45:27;;;;;;;4.05;2.88;;;;;;;5.55;100.00;92325.91;2088824;28;20381;-84
2022/04/06 02:46:29;;;;;;;3.17;2.97;;;;;;;5.72;100.00;92316.19;2077929;28;20030;-85
2022/04/06 02:47:30;;;;;;;2.80;2.60;;;;;;;5.78;100.00;92322.50;2080886;28;20402;-83
2022/04/06 02:48:31;;;;;;;3.75;2.55;;;;;;;5.60;100.00;92322.06;2080533;28;20037;-84
2022/04/06 02:49:32;;;;;;;3.65;3.17;;;;;;;5.55;100.00;92314.56;2089228;28;20051;-84
2022/04/06 02:50:33;;;;;;;2.65;2.45;;;;;;;5.49;100.00;92316.94;2088765;28;20167;-83
2022/04/06 02:51:36;;;;;;;2.88;2.63;;;;;;;5.55;100.00;92319.88;2086923;28;20083;-84
2022/04/06 02:52:37;;;;;;;2.90;2.70;;;;;;;5.60;100.00;92316.00;2097275;28;20479;-82
2022/04/06 02:53:38;;;;;;;3.13;2.78;;;;;;;5.61;100.00;92314.84;2080638;28;20113;-82
2022/04/06 02:54:39;;;;;;;2.80;2.58;;;;;;;5.52;100.00;92313.47;2097373;28;20389;-82
2022/04/06 02:55:40;;;;;;;3.70;2.75;;;;;;;5.49;100.00;92314.28;2097135;28;20078;-83
2022/04/06 02:56:41;;;;;;;2.70;2.50;;;;;;;5.49;100.00;92314.28;2098268;28;20109;-83
2022/04/06 02:57:43;;;;;;;3.72;2.53;;;;;;;5.51;100.00;92316.53;2104552;28;20050;-85
2022/04/06 02:58:44;;;;;;;2.70;2.50;;;;;;;5.61;100.00;92312.19;2101387;28;20107;-85
2022/04/06 02:59:45;;;;;;;2.80;2.60;;;;;;;5.50;100.00;92317.69;2090563;28;20028;-83
2022/04/06 03:00:46;;;;;;;2.58;2.38;;;;;;;5.49;100.00;92313.53;2088190;28;20021;-85
2022/04/06 03:01:47;;;;;;;2.85;2.65;;;;;;;5.46;100.00;92317.00;2080858;28;20029;-82
2022/04/06 03:02:49;;;;;;;3.00;2.80;;;;;;;5.39;100.00;92317.84;2089039;28;20134;-85
2022/04/06 03:03:50;;;;;;;2.72;2.53;;;;;;;5.43;100.00;92312.50;2081108;28;20500;-84
2022/04/06 03:04:52;;;;;;;2.75;2.55;;;;;;;5.37;100.00;92306.16;2080568;28;20028;-83
2022/04/06 03:05:52;;;;;;;2.42;2.22;;;;;;;5.34;100.00;92305.03;2089375;28;20501;-82
2022/04/06 03:06:54;;;;;;;3.22;2.92;;;;;;;5.33;100.00;92308.09;2096811;28;20024;-83
2022/04/06 03:07:55;;;;;;;3.72;3.47;;;;;;;5.34;100.00;92307.69;2081587;28;20159;-82
2022/04/06 03:08:56;;;;;;;4.30;3.92;;;;;;;5.32;100.00;92302.06;2088981;28;20028;-84
2022/04/06 03:09:57;;;;;;;3.40;3.15;;;;;;;5.28;100.00;92301.38;2080780;28;20466;-83
2022/04/06 03:10:59;;;;;;;4.40;4.00;;;;;;;5.22;100.00;92308.25;2080722;28;20099;-83
2022/04/06 03:12:00;;;;;;;4.35;3.95;;;;;;;5.33;100.00;92311.50;2080312;28;20523;-84
2022/04/06 03:13:01;;;;;;;4.30;3.47;;;;;;;5.30;100.00;92307.00;2088839;28;20116;-81
2022/04/06 03:14:03;;;;;;;3.45;3.15;;;;;;;5.34;100.00;92299.75;2097309;28;20020;-83
2022/04/06 03:15:05;;;;;;;2.85;2.65;;;;;;;5.32;100.00;92299.41;2097393;28;20070;-84
2022/04/06 03:16:07;;;;;;;2.92;2.72;;;;;;;5.34;100.00;92301.66;2092029;28;20025;-82
2022/04/06 03:17:08;;;;;;;2.90;2.70;;;;;;;5.34;100.00;92297.09;2088246;28;20606;-81
2022/04/06 03:18:09;;;;;;;3.42;3.10;;;;;;;5.43;100.00;92293.94;2082217;28;20033;-82
2022/04/06 03:19:10;;;;;;;3.28;3.00;;;;;;;5.50;100.00;92297.22;2077059;28;20049;-82
2022/04/06 03:20:14;;;;;;;3.15;2.90;;;;;;;5.56;100.00;92286.91;2098696;28;20020;-82
2022/04/06 03:21:23;;;;;;;3.03;2.72;;;;;;;5.48;100.00;92290.81;2091015;28;20029;-84
2022/04/06 03:22:30;;;;;;;3.00;2.78;;;;;;;5.49;100.00;92287.78;2084323;28;20022;-83
2022/04/06 03:23:37;;;;;;;3.22;2.80;;;;;;;5.49;100.00;92287.03;2091256;28;20032;-83
2022/04/06 03:24:48;;;;;;;3.75;2.85;;;;;;;5.51;100.00;92282.81;2090790;28;20405;-84
2022/04/06 03:25:49;;;;;;;3.25;3.03;;;;;;;5.48;100.00;92286.25;2084864;28;20039;-83
2022/04/06 03:26:50;;;;;;;2.92;2.72;;;;;;;5.47;100.00;92287.44;2090441;28;20405;-83
2022/04/06 03:27:52;;;;;;;3.85;2.90;;;;;;;5.51;100.00;92290.78;2082122;28;20075;-85
2022/04/06 03:28:53;;;;;;;3.28;2.92;;;;;;;5.54;100.00;92279.38;2082294;28;20029;-84
2022/04/06 03:29:54;;;;;;;3.88;2.67;;;;;;;5.50;100.00;92285.88;2089373;28;20478;-84
2022/04/06 03:30:55;;;;;;;2.72;2.53;;;;;;;5.66;100.00;92274.63;2082158;28;20029;-84
2022/04/06 03:32:18;;;;;;;3.00;2.70;;;;;;;5.54;100.00;92274.06;2073802;28;20068;-83
2022/04/06 03:33:19;;;;;;;3.38;3.08;;;;;;;5.53;100.00;92283.19;2088931;28;20020;-84
2022/04/06 03:34:20;;;;;;;3.10;2.90;;;;;;;5.71;100.00;92287.44;2090421;28;20036;-84
2022/04/06 03:35:21;;;;;;;2.95;2.75;;;;;;;5.68;100.00;92278.38;2086392;28;20040;-84
2022/04/06 03:36:22;;;;;;;2.90;2.67;;;;;;;5.87;100.00;92287.53;2089901;28;20027;-84
2022/04/06 03:37:24;;;;;;;3.22;2.92;;;;;;;5.80;100.00;92285.00;2090215;28;20036;-84
2022/04/06 03:38:25;;;;;;;7.43;6.72;;;;;;;5.95;100.00;92290.81;2090409;28;20104;-84
2022/04/06 03:39:26;;;;;;;5.55;5.07;;;;;;;5.84;100.00;92283.03;2098485;28;20025;-83
2022/04/06 03:40:28;;;;;;;4.15;3.75;;;;;;;5.87;100.00;92282.22;2082017;28;20018;-83
2022/04/06 03:41:29;;;;;;;3.70;3.10;;;;;;;5.84;100.00;92283.03;2095899;28;20016;-84
2022/04/06 03:42:30;;;;;;;3.30;3.03;;;;;;;5.84;100.00;92279.63;2084843;28;20018;-84
2022/04/06 03:43:31;;;;;;;3.80;3.50;;;;;;;5.78;100.00;92282.00;2090406;28;20025;-85
2022/04/06 03:44:32;;;;;;;3.92;3.17;;;;;;;5.91;100.00;92276.84;2084553;28;20474;-83
2022/04/06 03:45:34;;;;;;;3.33;3.00;;;;;;;5.93;100.00;92277.97;2088025;28;20519;-83
2022/04/06 03:46:35;;;;;;;3.10;2.90;;;;;;;5.99;100.00;92276.34;2090533;28;20036;-82
2022/04/06 03:47:38;;;;;;;3.25;3.05;;;;;;;5.90;100.00;92278.00;2090489;28;20032;-82
2022/04/06 03:48:39;;;;;;;3.15;2.85;;;;;;;5.81;100.00;92273.25;2090246;28;20115;-85
2022/04/06 03:49:40;;;;;;;3.65;3.35;;;;;;;6.16;100.00;92269.22;2090281;28;20580;-83
2022/04/06 03:50:41;;;;;;;3.60;3.30;;;;;;;6.12;100.00;92276.50;2082219;28;20055;-82
2022/04/06 03:51:43;;;;;;;3.35;3.05;;;;;;;6.01;100.00;92274.06;2090584;28;20380;-84
2022/04/06 03:52:44;;;;;;;2.85;2.65;;;;;;;6.09;100.00;92274.66;2098471;28;20024;-82
2022/04/06 03:53:46;;;;;;;3.35;3.10;;;;;;;6.01;100.00;92275.94;2090325;28;20025;-84
2022/04/06 03:54:47;;;;;;;3.40;3.10;;;;;;;5.90;100.00;92278.00;2107034;28;20023;-84
2022/04/06 03:55:48;;;;;;;3.47;2.92;;;;;;;5.88;100.00;92282.97;2090481;28;20100;-83
2022/04/06 03:56:49;;;;;;;3.38;3.08;;;;;;;5.97;100.00;92269.94;2098395;28;20076;-84
2022/04/06 03:57:51;;;;;;;3.30;3.00;;;;;;;5.88;100.00;92278.41;2098228;28;20024;-83
2022/04/06 03:58:53;;;;;;;3.72;3.10;;;;;;;5.82;100.00;92272.81;2090933;28;20048;-83
2022/04/06 03:59:54;;;;;;;3.40;3.20;;;;;;;5.81;100.00;92270.59;2097665;28;20032;-83
2022/04/06 04:00:56;;;;;;;3.08;2.88;;;;;;;5.83;100.00;92273.56;2086827;28;20033;-82
2022/04/06 04:01:57;;;;;;;3.47;3.17;;;;;;;5.91;100.00;92272.28;2090151;28;20524;-84
2022/04/06 04:02:59;;;;;;;3.13;2.92;;;;;;;6.23;100.00;92276.28;2098568;28;20032;-82
2022/04/06 04:04:01;;;;;;;3.47;3.17;;;;;;;6.44;100.00;92267.16;2090438;28;20052;-83
2022/04/06 04:05:03;;;;;;;3.72;3.42;;;;;;;6.25;100.00;92274.72;2090302;28;20056;-83
2022/04/06 04:06:04;;;;;;;2.90;2.70;;;;;;;6.19;100.00;92275.59;2082423;28;20509;-82
2022/04/06 04:07:07;;;;;;;3.22;3.03;;;;;;;6.05;100.00;92271.31;2084271;28;20143;-82
2022/04/06 04:08:08;;;;;;;3.70;3.40;;;;;;;5.98;100.00;92264.25;2090184;28;20029;-83
2022/04/06 04:09:09;;;;;;;3.50;3.20;;;;;;;5.92;100.00;92268.50;2082010;28;20112;-83
2022/04/06 04:10:10;;;;;;;3.47;3.17;;;;;;;5.87;100.00;92262.91;2090224;28;20024;-84
2022/04/06 04:11:12;;;;;;;3.78;3.47;;;;;;;5.93;100.00;92262.06;2090402;28;20035;-83
2022/04/06 04:12:13;;;;;;;3.85;3.55;;;;;;;6.04;100.00;92259.94;2081409;28;20912;-82
2022/04/06 04:13:14;;;;;;;3.42;3.13;;;;;;;6.04;100.00;92262.59;2090162;28;20024;-82
2022/04/06 04:14:15;;;;;;;3.42;3.15;;;;;;;6.05;100.00;92268.66;2098269;28;20511;-84
2022/04/06 04:15:16;;;;;;;3.83;3.30;;;;;;;6.00;100.00;92263.81;2090807;28;20029;-83
2022/04/06 04:16:17;;;;;;;4.03;3.70;;;;;;;5.95;100.00;92264.31;2090046;28;20048;-82
2022/04/06 04:17:18;;;;;;;4.38;3.97;;;;;;;5.92;100.00;92268.50;2102856;28;20500;-82
2022/04/06 04:18:19;;;;;;;3.88;3.58;;;;;;;5.93;100.00;92266.63;2098326;28;20064;-84
2022/04/06 04:19:21;;;;;;;4.00;3.70;;;;;;;5.96;100.00;92266.53;2090620;28;20036;-81
2022/04/06 04:20:22;;;;;;;3.63;3.33;;;;;;;5.99;100.00;92267.66;2090124;28;20546;-82
2022/04/06 04:21:32;;;;;;;4.22;3.92;;;;;;;5.95;100.00;92264.31;2085998;28;20100;-82
2022/04/06 04:22:33;;;;;;;3.90;3.60;;;;;;;5.91;100.00;92261.69;2091274;28;20021;-84
2022/04/06 04:23:34;;;;;;;3.97;3.67;;;;;;;5.91;100.00;92264.34;2081891;28;20017;-82
2022/04/06 04:24:35;;;;;;;4.47;4.18;;;;;;;5.90;100.00;92268.16;2095952;28;20035;-82
2022/04/06 04:25:36;;;;;;;3.97;3.67;;;;;;;5.89;100.00;92264.00;2100235;28;20373;-84
2022/04/06 04:26:38;;;;;;;4.15;3.83;;;;;;;5.86;100.00;92261.41;2089787;28;20057;-82
2022/04/06 04:27:41;;;;;;;3.97;3.67;;;;;;;5.84;100.00;92259.19;2082551;28;20028;-83
2022/04/06 04:28:43;;;;;;;5.43;4.35;;;;;;;5.87;100.00;92263.66;2082246;28;20021;-84
2022/04/06 04:29:51;;;;;;;3.55;3.25;;;;;;;5.87;100.00;92262.91;2083761;28;20029;-84
2022/04/06 04:30:54;;;;;;;3.70;3.40;;;;;;;5.97;100.00;92257.44;2082064;28;20053;-83
2022/04/06 04:32:00;;;;;;;3.85;3.50;;;;;;;5.95;100.00;92256.34;2076383;28;20117;-82
2022/04/06 04:33:01;;;;;;;5.28;3.40;;;;;;;5.99;100.00;92260.44;2089853;28;20021;-84
2022/04/06 04:34:03;;;;;;;3.50;3.20;;;;;;;6.30;100.00;92260.97;2090051;28;20029;-84
2022/04/06 04:35:06;;;;;;;3.67;3.38;;;;;;;6.26;100.00;92254.25;2081721;28;20029;-83
2022/04/06 04:36:07;;;;;;;3.65;3.35;;;;;;;6.33;100.00;92258.69;2081741;28;20033;-81
2022/04/06 04:37:08;;;;;;;3.85;3.40;;;;;;;6.16;100.00;92266.56;2089995;28;20025;-85
2022/04/06 04:38:11;;;;;;;4.10;3.70;;;;;;;6.14;100.00;92252.94;2098287;28;20052;-83
2022/04/06 04:39:12;;;;;;;3.97;3.67;;;;;;;6.11;100.00;92251.13;2098120;28;20070;-83
2022/04/06 04:40:16;;;;;;;3.90;3.60;;;;;;;6.08;100.00;92249.28;2098203;28;20021;-82
2022/04/06 04:41:17;;;;;;;3.63;3.33;;;;;;;5.97;100.00;92249.50;2101630;28;20023;-82
2022/04/06 04:42:18;;;;;;;3.67;3.38;;;;;;;6.04;100.00;92249.34;2089901;28;20037;-82
2022/04/06 04:43:19;;;;;;;3.83;3.53;;;;;;;6.10;100.00;92256.81;2090132;28;20013;-82
2022/04/06 04:44:20;;;;;;;3.60;3.30;;;;;;;6.10;100.00;92254.16;2089848;28;20036;-83
2022/04/06 04:45:21;;;;;;;3.85;3.25;;;;;;;6.05;100.00;92244.78;2090012;28;20016;-84
2022/04/06 04:46:22;;;;;;;3.97;3.42;;;;;;;5.95;100.00;92253.69;2094149;28;20044;-82
2022/04/06 04:47:23;;;;;;;3.28;3.08;;;;;;;5.97;100.00;92259.31;2089870;28;20501;-82
2022/04/06 04:48:24;;;;;;;3.63;3.10;;;;;;;6.18;100.00;92258.94;2089515;28;20024;-84
2022/04/06 04:49:25;;;;;;;3.42;3.22;;;;;;;6.13;100.00;92250.72;2089902;28;20521;-84
2022/04/06 04:50:26;;;;;;;3.25;3.03;;;;;;;6.20;100.00;92251.34;2090023;28;20629;-83
2022/04/06 04:51:28;;;;;;;3.55;3.25;;;;;;;6.12;100.00;92259.84;2098037;28;20112;-83
2022/04/06 04:52:29;;;;;;;3.67;3.38;;;;;;;6.07;100.00;92253.09;2088401;28;20029;-84
2022/04/06 04:53:30;;;;;;;5.78;3.67;;;;;;;5.99;100.00;92247.16;2080739;28;20079;-82
2022/04/06 04:54:31;;;;;;;3.53;3.25;;;;;;;5.94;100.00;92252.94;2084307;28;20823;-83
2022/04/06 04:55:33;;;;;;;4.13;3.40;;;;;;;5.96;100.00;92245.31;2095598;28;20046;-84